createdAt,value
2023-02-15T00:00:12.137Z,29.23
2023-02-15T00:02:40.363Z,28.98
2023-02-15T00:05:08.246Z,30.13
2023-02-15T00:07:35.577Z,29.58
2023-02-15T00:10:03.021Z,32.40
2023-02-15T00:12:30.352Z,29.55
2023-02-15T00:14:57.608Z,29.67
2023-02-15T00:17:25.243Z,30.98
2023-02-15T00:19:52.883Z,31.83
2023-02-15T00:22:20.851Z,30.35
2023-02-15T00:24:48.128Z,30.90
2023-02-15T00:27:15.393Z,30.38
2023-02-15T00:29:42.651Z,29.08
2023-02-15T00:32:09.886Z,31.92
2023-02-15T00:34:37.235Z,33.88
2023-02-15T00:37:04.548Z,31.35
2023-02-15T00:39:32.249Z,31.85
2023-02-15T00:41:59.904Z,32.90
2023-02-15T00:44:27.240Z,34.13
2023-02-15T00:46:57.402Z,35.05
2023-02-15T00:49:24.682Z,40.95
2023-02-15T00:51:51.989Z,41.65
2023-02-15T00:54:19.772Z,36.55
2023-02-15T00:56:47.390Z,32.75
2023-02-15T00:59:14.664Z,34.47
2023-02-15T01:01:42.045Z,35.40
2023-02-15T01:04:09.409Z,34.25
2023-02-15T01:06:37.116Z,32.45
2023-02-15T01:09:04.466Z,35.15
2023-02-15T01:11:31.766Z,34.60
2023-02-15T01:13:59.425Z,35.78
2023-02-15T01:16:28.932Z,35.47
2023-02-15T01:18:56.982Z,33.97
2023-02-15T01:21:28.171Z,32.80
2023-02-15T01:23:55.508Z,32.65
2023-02-15T01:26:22.835Z,34.40
2023-02-15T01:28:50.532Z,35.85
2023-02-15T01:31:20.141Z,35.92
2023-02-15T01:33:48.435Z,35.30
2023-02-15T01:36:18.266Z,34.42
2023-02-15T01:38:45.879Z,33.60
2023-02-15T01:41:25.479Z,32.92
2023-02-15T01:44:00.666Z,32.25
2023-02-15T01:46:33.442Z,34.97
2023-02-15T01:49:11.534Z,34.50
2023-02-15T01:51:42.142Z,31.50
2023-02-15T01:54:16.927Z,33.90
2023-02-15T01:56:44.700Z,35.28
2023-02-15T01:59:17.255Z,37.00
2023-02-15T02:01:45.472Z,36.55
2023-02-15T02:04:25.939Z,39.00
2023-02-15T02:06:54.123Z,34.05
2023-02-15T02:09:21.411Z,34.35
2023-02-15T02:11:49.518Z,35.63
2023-02-15T02:14:17.658Z,35.90
2023-02-15T02:17:11.488Z,35.72
2023-02-15T02:20:01.680Z,34.22
2023-02-15T02:22:49.789Z,36.15
2023-02-15T02:25:24.883Z,35.85
2023-02-15T02:28:19.100Z,34.70
2023-02-15T02:31:04.540Z,34.72
2023-02-15T02:33:42.150Z,37.72
2023-02-15T02:36:18.537Z,36.75
2023-02-15T02:39:17.749Z,39.90
2023-02-15T02:41:58.245Z,45.72
2023-02-15T02:45:06.327Z,42.80
2023-02-15T02:47:40.972Z,45.15
2023-02-15T02:50:16.438Z,41.45
2023-02-15T02:52:50.813Z,41.42
2023-02-15T02:55:23.807Z,41.05
2023-02-15T02:58:01.887Z,39.80
2023-02-15T03:00:33.886Z,41.65
2023-02-15T03:03:05.845Z,42.20
2023-02-15T03:05:36.723Z,40.28
2023-02-15T03:08:07.130Z,41.90
2023-02-15T03:10:37.606Z,41.20
2023-02-15T03:13:06.173Z,43.38
2023-02-15T03:15:57.608Z,42.45
2023-02-15T03:18:32.129Z,45.30
2023-02-15T03:21:02.561Z,44.15
2023-02-15T03:23:31.400Z,45.70
2023-02-15T03:26:03.390Z,41.45
2023-02-15T03:28:46.296Z,43.85
2023-02-15T03:31:16.637Z,38.00
2023-02-15T03:33:56.315Z,38.88
2023-02-15T03:37:08.242Z,38.75
2023-02-15T03:39:49.884Z,37.85
2023-02-15T03:42:34.008Z,38.88
2023-02-15T03:45:12.610Z,40.10
2023-02-15T03:47:45.856Z,39.45
2023-02-15T03:50:41.477Z,40.85
2023-02-15T03:53:14.488Z,40.58
2023-02-15T03:55:41.918Z,42.72
2023-02-15T03:58:27.769Z,42.85
2023-02-15T04:01:28.957Z,45.92
2023-02-15T04:04:06.096Z,50.65
2023-02-15T04:09:19.206Z,50.40
2023-02-15T04:11:46.722Z,53.30
2023-02-15T04:14:32.484Z,47.67
2023-02-15T04:16:59.758Z,52.10
2023-02-15T04:19:45.921Z,47.28
2023-02-15T04:22:31.805Z,38.40
2023-02-15T04:25:14.280Z,39.45
2023-02-15T04:27:44.527Z,38.35
2023-02-15T04:30:13.475Z,39.20
2023-02-15T04:32:40.867Z,40.33
2023-02-15T04:35:08.750Z,45.30
2023-02-15T04:37:36.338Z,41.92
2023-02-15T04:40:05.226Z,48.80
2023-02-15T04:42:32.664Z,51.90
2023-02-15T04:44:59.964Z,48.75
2023-02-15T04:47:27.496Z,53.33
2023-02-15T04:49:56.329Z,52.97
2023-02-15T04:52:25.486Z,56.60
2023-02-15T04:54:52.746Z,58.92
2023-02-15T04:57:20.029Z,57.40
2023-02-15T04:59:47.255Z,55.45
2023-02-15T05:02:14.622Z,55.80
2023-02-15T05:04:41.843Z,58.28
2023-02-15T05:07:09.560Z,60.47
2023-02-15T05:09:36.770Z,57.08
2023-02-15T05:12:04.292Z,48.88
2023-02-15T05:14:31.553Z,37.35
2023-02-15T05:17:01.839Z,39.38
2023-02-15T05:19:29.120Z,37.53
2023-02-15T05:21:56.982Z,39.03
2023-02-15T05:24:43.047Z,40.22
2023-02-15T05:27:31.941Z,39.65
2023-02-15T05:29:59.303Z,39.20
2023-02-15T05:32:27.197Z,42.22
2023-02-15T05:34:54.359Z,45.60
2023-02-15T05:37:21.679Z,47.38
2023-02-15T05:39:48.939Z,50.95
2023-02-15T05:42:16.209Z,45.97
2023-02-15T05:44:43.509Z,48.72
2023-02-15T05:47:10.739Z,50.00
2023-02-15T05:49:38.067Z,45.45
2023-02-15T05:52:05.572Z,49.22
2023-02-15T05:54:32.886Z,51.47
2023-02-15T05:57:00.206Z,49.30
2023-02-15T05:59:27.453Z,48.13
2023-02-15T06:01:54.755Z,50.83
2023-02-15T06:04:22.040Z,51.42
2023-02-15T06:06:49.328Z,55.33
2023-02-15T06:09:19.235Z,56.30
2023-02-15T06:11:47.164Z,53.05
2023-02-15T06:14:14.471Z,53.65
2023-02-15T06:16:41.914Z,53.35
2023-02-15T06:19:09.199Z,53.03
2023-02-15T06:21:36.477Z,54.47
2023-02-15T06:24:03.990Z,60.20
2023-02-15T06:26:31.295Z,56.13
2023-02-15T06:28:58.566Z,63.05
2023-02-15T06:31:25.941Z,58.25
2023-02-15T06:33:53.325Z,57.13
2023-02-15T06:36:20.587Z,54.58
2023-02-15T06:38:47.815Z,56.22
2023-02-15T06:41:15.080Z,55.30
2023-02-15T06:43:42.446Z,52.92
2023-02-15T06:46:09.795Z,54.65
2023-02-15T06:48:37.086Z,56.25
2023-02-15T06:51:04.475Z,53.65
2023-02-15T06:53:31.830Z,54.33
2023-02-15T06:56:09.833Z,53.95
2023-02-15T06:58:38.403Z,53.35
2023-02-15T07:01:06.243Z,54.45
2023-02-15T07:03:34.021Z,55.20
2023-02-15T07:06:04.289Z,56.28
2023-02-15T07:08:31.736Z,59.08
2023-02-15T07:11:19.085Z,56.97
2023-02-15T07:13:47.028Z,57.30
2023-02-15T07:16:14.840Z,54.63
2023-02-15T07:18:42.153Z,55.75
2023-02-15T07:21:09.462Z,54.55
2023-02-15T07:23:38.380Z,51.10
2023-02-15T07:26:07.016Z,51.10
2023-02-15T07:28:35.586Z,52.92
2023-02-15T07:31:06.656Z,52.33
2023-02-15T07:33:35.054Z,54.13
2023-02-15T07:36:04.854Z,55.42
2023-02-15T07:38:35.586Z,52.17
2023-02-15T07:41:05.426Z,49.05
2023-02-15T07:43:35.248Z,51.15
2023-02-15T07:46:08.821Z,53.08
2023-02-15T07:48:37.086Z,54.90
2023-02-15T07:51:06.420Z,52.40
2023-02-15T07:53:34.975Z,52.55
2023-02-15T07:56:07.098Z,50.47
2023-02-15T07:58:53.668Z,50.35
2023-02-15T08:01:22.461Z,48.03
2023-02-15T08:03:50.630Z,48.40
2023-02-15T08:06:18.869Z,50.08
2023-02-15T08:08:47.459Z,48.13
2023-02-15T08:11:26.424Z,48.85
2023-02-15T08:14:03.563Z,48.42
2023-02-15T08:16:35.963Z,44.40
2023-02-15T08:19:08.039Z,45.60
2023-02-15T08:21:37.126Z,44.42
2023-02-15T08:24:05.931Z,42.70
2023-02-15T08:26:34.281Z,39.20
2023-02-15T08:29:02.360Z,41.55
2023-02-15T08:31:30.382Z,39.13
2023-02-15T08:33:58.168Z,40.22
2023-02-15T08:36:28.662Z,36.67
2023-02-15T08:38:59.242Z,39.28
2023-02-15T08:41:30.672Z,35.05
2023-02-15T08:44:00.879Z,37.70
2023-02-15T08:46:31.133Z,39.20
2023-02-15T08:48:59.065Z,33.10
2023-02-15T08:51:28.819Z,29.13
2023-02-15T08:53:59.312Z,35.95
2023-02-15T08:56:33.596Z,32.13
2023-02-15T08:59:01.508Z,35.75
2023-02-15T09:01:30.921Z,34.05
2023-02-15T09:04:01.098Z,30.50
2023-02-15T09:06:29.198Z,35.00
2023-02-15T09:08:57.666Z,33.58
2023-02-15T09:11:27.710Z,36.47
2023-02-15T09:13:57.466Z,31.75
2023-02-15T09:16:27.000Z,31.45
2023-02-15T09:18:55.374Z,32.10
2023-02-15T09:21:24.987Z,29.95
2023-02-15T09:23:56.230Z,27.20
2023-02-15T09:26:25.021Z,32.42
2023-02-15T09:28:56.576Z,33.90
2023-02-15T09:31:32.224Z,24.38
2023-02-15T09:34:03.963Z,31.63
2023-02-15T09:36:34.597Z,28.42
2023-02-15T09:39:28.335Z,33.55
2023-02-15T09:42:29.198Z,31.90
2023-02-15T09:45:41.192Z,24.45
2023-02-15T09:48:19.870Z,27.05
2023-02-15T09:51:26.155Z,32.40
2023-02-15T09:53:59.361Z,29.92
2023-02-15T09:56:38.454Z,27.02
2023-02-15T09:59:05.819Z,30.80
2023-02-15T10:01:57.970Z,34.80
2023-02-15T10:04:47.969Z,17.88
2023-02-15T10:07:36.697Z,25.45
2023-02-15T10:10:20.292Z,31.65
2023-02-15T10:13:05.631Z,30.42
2023-02-15T10:16:13.979Z,31.48
2023-02-15T10:18:50.404Z,26.45
2023-02-15T10:21:49.974Z,26.83
2023-02-15T10:24:23.251Z,26.52
2023-02-15T10:26:50.779Z,30.50
2023-02-15T10:29:38.656Z,25.88
2023-02-15T10:32:17.798Z,30.48
2023-02-15T10:35:04.194Z,26.35
2023-02-15T10:38:07.778Z,27.40
2023-02-15T10:40:52.446Z,28.48
2023-02-15T10:43:44.544Z,20.58
2023-02-15T10:46:45.611Z,26.90
2023-02-15T10:49:24.917Z,26.25
2023-02-15T10:52:37.440Z,27.23
2023-02-15T10:55:23.641Z,23.73
2023-02-15T10:58:27.779Z,15.45
2023-02-15T11:01:23.234Z,22.13
2023-02-15T11:04:22.031Z,25.15
2023-02-15T11:06:57.189Z,19.17
2023-02-15T11:09:30.418Z,20.17
2023-02-15T11:12:01.461Z,20.63
2023-02-15T11:14:38.706Z,24.60
2023-02-15T11:19:48.634Z,20.83
2023-02-15T11:22:17.802Z,20.02
2023-02-15T11:24:47.712Z,20.58
2023-02-15T11:27:24.273Z,18.15
2023-02-15T11:30:01.611Z,18.92
2023-02-15T11:32:33.388Z,17.27
2023-02-15T11:35:12.978Z,18.88
2023-02-15T11:37:52.417Z,15.73
2023-02-15T11:40:34.191Z,16.05
2023-02-15T11:43:16.395Z,18.35
2023-02-15T11:45:46.236Z,16.45
2023-02-15T11:48:15.440Z,14.00
2023-02-15T11:50:45.167Z,14.07
2023-02-15T11:53:19.370Z,15.85
2023-02-15T11:55:49.182Z,15.15
2023-02-15T11:58:16.464Z,14.10
2023-02-15T12:00:46.830Z,13.60
2023-02-15T12:03:24.422Z,14.40
2023-02-15T12:05:58.582Z,14.45
2023-02-15T12:08:30.307Z,14.85
2023-02-15T12:11:06.941Z,13.20
2023-02-15T12:13:34.340Z,13.77
2023-02-15T12:16:12.551Z,13.20
2023-02-15T12:18:45.690Z,14.15
2023-02-15T12:21:27.500Z,13.52
2023-02-15T12:23:59.206Z,13.68
2023-02-15T12:26:32.349Z,12.25
2023-02-15T12:29:21.671Z,14.27
2023-02-15T12:31:52.743Z,13.80
2023-02-15T12:34:27.568Z,13.27
2023-02-15T12:37:01.188Z,9.43
2023-02-15T12:39:30.891Z,14.57
2023-02-15T12:42:15.613Z,14.88
2023-02-15T12:44:55.967Z,12.95
2023-02-15T12:47:28.908Z,12.95
2023-02-15T12:50:12.195Z,13.77
2023-02-15T12:52:40.433Z,12.30
2023-02-15T12:55:23.103Z,12.98
2023-02-15T12:58:05.412Z,11.07
2023-02-15T13:00:32.951Z,11.48
2023-02-15T13:03:01.405Z,11.77
2023-02-15T13:05:37.471Z,11.50
2023-02-15T13:08:15.623Z,11.23
2023-02-15T13:10:55.682Z,11.60
2023-02-15T13:13:32.306Z,11.98
2023-02-15T13:16:10.618Z,9.57
2023-02-15T13:18:40.548Z,8.85
2023-02-15T13:21:31.251Z,9.52
2023-02-15T13:24:07.241Z,11.35
2023-02-15T13:26:35.967Z,9.73
2023-02-15T13:29:36.152Z,8.90
2023-02-15T13:32:16.433Z,9.50
2023-02-15T13:34:43.809Z,7.82
2023-02-15T13:37:27.234Z,7.68
2023-02-15T13:40:19.277Z,8.43
2023-02-15T13:43:11.444Z,10.65
2023-02-15T13:46:00.193Z,8.60
2023-02-15T13:48:46.900Z,7.97
2023-02-15T13:51:54.660Z,8.68
2023-02-15T13:54:30.004Z,7.07
2023-02-15T13:57:12.488Z,6.72
2023-02-15T14:00:05.115Z,8.05
2023-02-15T14:03:01.841Z,11.05
2023-02-15T14:06:04.080Z,9.00
2023-02-15T14:08:57.769Z,7.65
2023-02-15T14:11:38.817Z,7.53
2023-02-15T14:14:48.516Z,7.38
2023-02-15T14:17:28.222Z,8.45
2023-02-15T14:20:07.425Z,7.88
2023-02-15T14:22:45.272Z,7.45
2023-02-15T14:25:33.508Z,7.03
2023-02-15T14:28:12.341Z,6.03
2023-02-15T14:30:45.473Z,7.22
2023-02-15T14:33:16.426Z,5.22
2023-02-15T14:35:44.793Z,6.68
2023-02-15T14:38:39.343Z,6.72
2023-02-15T14:41:41.371Z,7.05
2023-02-15T14:44:19.356Z,6.47
2023-02-15T14:47:02.268Z,5.70
2023-02-15T14:49:36.597Z,5.55
2023-02-15T14:52:09.448Z,6.03
2023-02-15T14:54:36.815Z,5.18
2023-02-15T14:57:04.056Z,7.35
2023-02-15T15:00:02.235Z,7.10
2023-02-15T15:02:49.892Z,5.68
2023-02-15T15:05:30.650Z,6.45
2023-02-15T15:08:00.715Z,6.70
2023-02-15T15:10:47.152Z,7.38
2023-02-15T15:13:32.522Z,6.18
2023-02-15T15:16:37.078Z,6.72
2023-02-15T15:19:09.977Z,6.80
2023-02-15T15:21:49.678Z,6.32
2023-02-15T15:24:39.139Z,6.18
2023-02-15T15:27:40.667Z,8.35
2023-02-15T15:30:20.414Z,7.00
2023-02-15T15:32:53.957Z,6.50
2023-02-15T15:35:58.992Z,6.10
2023-02-15T15:39:01.467Z,6.10
2023-02-15T15:41:44.852Z,4.68
2023-02-15T15:44:34.507Z,7.40
2023-02-15T15:47:27.905Z,6.03
2023-02-15T15:49:59.948Z,5.00
2023-02-15T15:52:29.638Z,5.72
2023-02-15T15:55:04.050Z,5.90
2023-02-15T15:57:39.182Z,6.50
2023-02-15T16:00:33.385Z,7.03
2023-02-15T16:03:00.899Z,6.07
2023-02-15T16:05:34.959Z,6.18
2023-02-15T16:08:02.360Z,5.63
2023-02-15T16:10:33.139Z,6.20
2023-02-15T16:13:01.187Z,5.63
2023-02-15T16:15:46.066Z,6.53
2023-02-15T16:18:18.372Z,5.97
2023-02-15T16:20:57.974Z,5.28
2023-02-15T16:23:40.398Z,5.95
2023-02-15T16:26:16.838Z,6.30
2023-02-15T16:28:54.756Z,6.40
2023-02-15T16:31:23.476Z,6.90
2023-02-15T16:33:54.695Z,5.07
2023-02-15T16:36:28.884Z,8.07
2023-02-15T16:38:56.109Z,7.55
2023-02-15T16:41:31.116Z,7.22
2023-02-15T16:44:04.203Z,7.30
2023-02-15T16:46:34.579Z,8.63
2023-02-15T16:49:08.801Z,6.53
2023-02-15T16:51:37.001Z,7.65
2023-02-15T16:54:08.669Z,7.43
2023-02-15T16:56:37.284Z,7.80
2023-02-15T16:59:04.943Z,5.75
2023-02-15T17:01:33.659Z,8.55
2023-02-15T17:04:26.957Z,7.72
2023-02-15T17:07:07.441Z,8.57
2023-02-15T17:09:34.916Z,8.43
2023-02-15T17:12:03.168Z,8.68
2023-02-15T17:14:40.839Z,8.77
2023-02-15T17:17:14.010Z,9.48
2023-02-15T17:19:55.624Z,8.65
2023-02-15T17:22:27.864Z,9.73
2023-02-15T17:25:01.038Z,9.52
2023-02-15T17:27:32.026Z,10.70
2023-02-15T17:30:02.619Z,8.55
2023-02-15T17:32:32.833Z,11.10
2023-02-15T17:35:35.518Z,11.02
2023-02-15T17:38:18.083Z,12.98
2023-02-15T17:40:45.346Z,10.85
2023-02-15T17:43:12.620Z,10.55
2023-02-15T17:45:47.805Z,10.20
2023-02-15T17:48:25.227Z,10.32
2023-02-15T17:50:52.641Z,9.50
2023-02-15T17:53:20.695Z,10.43
2023-02-15T17:55:47.968Z,10.02
2023-02-15T17:58:17.202Z,9.68
2023-02-15T18:01:16.907Z,8.68
2023-02-15T18:04:08.368Z,10.45
2023-02-15T18:06:57.251Z,9.85
2023-02-15T18:09:43.965Z,10.25
2023-02-15T18:12:19.956Z,10.40
2023-02-15T18:14:47.669Z,9.93
2023-02-15T18:17:16.276Z,11.50
2023-02-15T18:19:45.624Z,9.27
2023-02-15T18:22:15.513Z,9.90
2023-02-15T18:24:43.975Z,8.23
2023-02-15T18:27:16.598Z,7.82
2023-02-15T18:29:43.951Z,10.02
2023-02-15T18:32:21.935Z,8.88
2023-02-15T18:34:49.748Z,10.27
2023-02-15T18:37:20.799Z,10.77
2023-02-15T18:39:50.290Z,10.20
2023-02-15T18:42:27.716Z,10.80
2023-02-15T18:44:57.968Z,10.15
2023-02-15T18:47:26.131Z,8.80
2023-02-15T18:49:53.628Z,10.25
2023-02-15T18:52:24.350Z,10.68
2023-02-15T18:54:55.239Z,12.10
2023-02-15T18:57:22.620Z,12.27
2023-02-15T18:59:49.933Z,8.05
2023-02-15T19:02:18.873Z,9.68
2023-02-15T19:04:46.904Z,10.02
2023-02-15T19:07:22.475Z,10.48
2023-02-15T19:09:54.029Z,11.98
2023-02-15T19:12:21.353Z,7.65
2023-02-15T19:14:48.801Z,9.40
2023-02-15T19:17:19.306Z,9.52
2023-02-15T19:19:47.764Z,9.88
2023-02-15T19:22:27.725Z,10.77
2023-02-15T19:25:00.498Z,12.35
2023-02-15T19:27:31.927Z,13.18
2023-02-15T19:30:01.311Z,13.35
2023-02-15T19:32:30.505Z,14.63
2023-02-15T19:34:58.089Z,14.80
2023-02-15T19:37:40.240Z,14.32
2023-02-15T19:40:19.159Z,13.25
2023-02-15T19:45:18.565Z,13.15
2023-02-15T19:47:48.055Z,14.23
2023-02-15T19:50:20.678Z,14.32
2023-02-15T19:52:48.785Z,11.88
2023-02-15T19:55:27.932Z,8.50
2023-02-15T19:57:56.682Z,17.23
2023-02-15T20:00:26.516Z,15.30
2023-02-15T20:02:55.464Z,16.92
2023-02-15T20:05:23.168Z,13.50
2023-02-15T20:07:53.761Z,15.40
2023-02-15T20:10:30.063Z,8.55
2023-02-15T20:12:58.396Z,16.60
2023-02-15T20:15:31.955Z,13.45
2023-02-15T20:18:02.708Z,17.30
2023-02-15T20:20:50.801Z,16.33
2023-02-15T20:23:24.673Z,17.70
2023-02-15T20:25:52.691Z,11.82
2023-02-15T20:28:26.001Z,14.35
2023-02-15T20:30:53.798Z,16.45
2023-02-15T20:33:22.880Z,18.35
2023-02-15T20:35:51.033Z,10.85
2023-02-15T20:38:28.274Z,12.25
2023-02-15T20:43:42.709Z,14.60
2023-02-15T20:46:10.060Z,18.13
2023-02-15T20:48:37.494Z,11.73
2023-02-15T20:51:05.554Z,20.17
2023-02-15T20:53:33.036Z,17.17
2023-02-15T20:56:00.375Z,12.55
2023-02-15T20:58:30.022Z,17.30
2023-02-15T21:00:58.896Z,18.13
2023-02-15T21:03:30.716Z,19.60
2023-02-15T21:05:59.124Z,19.52
2023-02-15T21:08:27.254Z,15.13
2023-02-15T21:10:54.991Z,17.27
2023-02-15T21:13:30.355Z,18.40
2023-02-15T21:15:58.248Z,17.15
2023-02-15T21:18:33.956Z,17.75
2023-02-15T21:21:04.544Z,16.30
2023-02-15T21:23:38.708Z,15.57
2023-02-15T21:26:12.815Z,22.52
2023-02-15T21:28:41.295Z,17.35
2023-02-15T21:31:21.505Z,18.45
2023-02-15T21:33:49.003Z,15.60
2023-02-15T21:36:22.136Z,24.38
2023-02-15T21:38:50.537Z,23.50
2023-02-15T21:41:39.421Z,19.17
2023-02-15T21:44:45.493Z,21.73
2023-02-15T21:47:45.955Z,17.25
2023-02-15T21:50:40.137Z,19.35
2023-02-15T21:53:11.949Z,18.95
2023-02-15T21:55:39.265Z,11.75
2023-02-15T21:58:06.542Z,21.65
2023-02-15T22:00:34.071Z,18.23
2023-02-15T22:03:02.101Z,22.95
2023-02-15T22:05:34.226Z,19.55
2023-02-15T22:08:02.001Z,15.10
2023-02-15T22:10:31.662Z,18.65
2023-02-15T22:13:03.316Z,22.15
2023-02-15T22:15:36.617Z,20.40
2023-02-15T22:18:04.992Z,17.00
2023-02-15T22:20:32.311Z,16.60
2023-02-15T22:22:59.656Z,24.75
2023-02-15T22:25:27.213Z,19.00
2023-02-15T22:27:55.195Z,24.45
2023-02-15T22:30:37.191Z,14.75
2023-02-15T22:33:04.536Z,18.85
2023-02-15T22:35:34.290Z,21.73
2023-02-15T22:38:01.762Z,20.92
2023-02-15T22:40:32.151Z,20.95
2023-02-15T22:43:04.902Z,21.13
2023-02-15T22:45:33.537Z,23.30
2023-02-15T22:48:01.245Z,19.55
2023-02-15T22:50:32.239Z,22.98
2023-02-15T22:53:01.367Z,22.30
2023-02-15T22:55:32.257Z,21.38
2023-02-15T22:58:00.146Z,22.40
2023-02-15T23:00:38.215Z,19.70
2023-02-15T23:03:16.730Z,19.17
2023-02-15T23:05:44.949Z,19.40
2023-02-15T23:08:12.599Z,21.45
2023-02-15T23:10:41.328Z,20.88
2023-02-15T23:13:24.934Z,21.70
2023-02-15T23:15:57.609Z,21.48
2023-02-15T23:18:40.566Z,20.35
2023-02-15T23:21:26.731Z,16.52
2023-02-15T23:23:57.719Z,18.52
2023-02-15T23:26:28.732Z,21.50
2023-02-15T23:28:58.428Z,22.00
2023-02-15T23:31:34.658Z,19.02
2023-02-15T23:34:07.129Z,17.13
2023-02-15T23:36:38.975Z,19.25
2023-02-15T23:39:40.303Z,18.85
2023-02-15T23:42:18.824Z,18.67
2023-02-15T23:44:47.899Z,18.30
2023-02-15T23:47:47.147Z,18.08
2023-02-15T23:50:26.070Z,19.35
2023-02-15T23:52:55.255Z,19.13
2023-02-15T23:55:28.230Z,18.35
2023-02-15T23:57:55.543Z,18.52
